createdAt,value
2018-09-15T00:03:38.080Z,99.90
2018-09-15T00:07:32.039Z,99.90
2018-09-15T00:11:26.068Z,99.90
2018-09-15T00:15:20.164Z,99.90
2018-09-15T00:19:14.103Z,99.90
2018-09-15T00:23:08.836Z,99.90
2018-09-15T00:27:02.693Z,99.90
2018-09-15T00:30:56.648Z,99.90
2018-09-15T00:34:50.552Z,99.90
2018-09-15T00:38:44.550Z,99.90
2018-09-15T00:42:38.406Z,99.90
2018-09-15T00:46:32.358Z,99.90
2018-09-15T00:50:26.321Z,99.90
2018-09-15T00:54:20.316Z,99.90
2018-09-15T00:58:14.219Z,99.90
2018-09-15T01:02:08.191Z,99.90
2018-09-15T01:06:02.138Z,99.90
2018-09-15T01:09:56.146Z,99.90
2018-09-15T01:13:50.868Z,99.90
2018-09-15T01:17:44.822Z,99.90
2018-09-15T01:21:38.728Z,99.90
2018-09-15T01:25:32.678Z,99.90
2018-09-15T01:29:26.604Z,99.90
2018-09-15T01:33:20.583Z,99.90
2018-09-15T01:37:15.242Z,99.90
2018-09-15T01:41:09.437Z,99.90
2018-09-15T01:45:03.869Z,99.90
2018-09-15T01:48:57.790Z,99.90
2018-09-15T01:52:51.771Z,99.90
2018-09-15T01:56:45.745Z,99.90
2018-09-15T02:00:39.667Z,99.90
2018-09-15T02:04:33.612Z,99.90
2018-09-15T02:08:27.543Z,99.90
2018-09-15T02:12:21.478Z,99.90
2018-09-15T02:16:15.435Z,99.90
2018-09-15T02:20:09.407Z,99.90
2018-09-15T02:24:03.418Z,99.90
2018-09-15T02:27:57.381Z,99.90
2018-09-15T02:31:51.347Z,99.90
2018-09-15T02:35:45.266Z,99.90
2018-09-15T02:39:39.294Z,99.90
2018-09-15T02:43:33.267Z,99.90
2018-09-15T02:47:27.250Z,99.90
2018-09-15T02:51:21.263Z,99.90
2018-09-15T02:55:15.164Z,99.90
2018-09-15T02:59:09.210Z,99.90
2018-09-15T03:03:03.206Z,99.90
2018-09-15T03:06:57.195Z,99.90
2018-09-15T03:10:51.245Z,99.90
2018-09-15T03:14:45.291Z,99.90
2018-09-15T03:18:39.227Z,99.90
2018-09-15T03:22:33.413Z,99.90
2018-09-15T03:26:27.362Z,99.90
2018-09-15T03:30:21.342Z,99.90
2018-09-15T03:34:15.259Z,99.90
2018-09-15T03:38:09.209Z,99.90
2018-09-15T03:42:03.184Z,99.90
2018-09-15T03:45:57.827Z,99.90
2018-09-15T03:49:51.819Z,99.90
2018-09-15T03:53:45.946Z,99.90
2018-09-15T03:57:39.954Z,99.90
2018-09-15T04:01:33.867Z,99.90
2018-09-15T04:05:27.818Z,99.90
2018-09-15T04:09:21.759Z,99.90
2018-09-15T04:13:16.053Z,99.90
2018-09-15T04:17:10.130Z,99.90
2018-09-15T04:21:04.095Z,99.90
2018-09-15T04:24:58.044Z,99.90
2018-09-15T04:28:52.872Z,99.90
2018-09-15T04:32:47.534Z,99.90
2018-09-15T04:36:41.658Z,99.90
2018-09-15T04:40:35.625Z,99.90
2018-09-15T04:44:29.592Z,99.90
2018-09-15T04:48:23.503Z,99.90
2018-09-15T04:52:17.427Z,99.90
2018-09-15T04:56:11.364Z,99.90
2018-09-15T05:00:05.275Z,99.90
2018-09-15T05:03:59.210Z,99.90
2018-09-15T05:07:53.775Z,99.90
2018-09-15T05:11:47.702Z,99.90
2018-09-15T05:15:41.727Z,99.90
2018-09-15T05:19:35.764Z,99.90
2018-09-15T05:23:30.091Z,99.90
2018-09-15T05:27:24.079Z,99.90
2018-09-15T05:31:18.082Z,99.90
2018-09-15T05:35:12.018Z,99.90
2018-09-15T05:39:09.230Z,99.90
2018-09-15T05:43:03.319Z,99.90
2018-09-15T05:46:57.351Z,99.90
2018-09-15T05:50:51.663Z,99.90
2018-09-15T05:54:45.668Z,99.90
2018-09-15T05:58:42.541Z,99.90
2018-09-15T06:02:36.472Z,99.90
2018-09-15T06:06:30.398Z,99.90
2018-09-15T06:10:24.359Z,99.90
2018-09-15T06:14:18.275Z,99.90
2018-09-15T06:18:12.328Z,99.90
2018-09-15T06:22:06.780Z,99.90
2018-09-15T06:26:01.194Z,99.90
2018-09-15T06:29:56.416Z,99.90
2018-09-15T06:33:50.807Z,99.90
2018-09-15T06:37:44.909Z,99.90
2018-09-15T06:41:39.226Z,99.90
2018-09-15T06:45:33.194Z,99.90
2018-09-15T06:49:27.127Z,99.90
2018-09-15T06:53:21.134Z,99.90
2018-09-15T06:57:15.194Z,99.90
2018-09-15T07:01:09.237Z,99.90
2018-09-15T07:05:03.330Z,99.90
2018-09-15T07:08:57.347Z,99.90
2018-09-15T07:12:51.329Z,99.90
2018-09-15T07:16:45.214Z,99.90
2018-09-15T07:20:39.131Z,99.90
2018-09-15T07:24:33.074Z,99.90
2018-09-15T07:28:26.945Z,99.90
2018-09-15T07:32:20.973Z,99.90
2018-09-15T07:36:14.901Z,99.90
2018-09-15T07:40:08.824Z,99.90
2018-09-15T07:44:02.813Z,99.90
2018-09-15T07:47:57.658Z,99.90
2018-09-15T07:51:51.659Z,99.90
2018-09-15T07:55:45.633Z,99.90
2018-09-15T07:59:39.635Z,99.90
2018-09-15T08:03:33.737Z,99.90
2018-09-15T08:07:27.736Z,99.90
2018-09-15T08:11:21.738Z,99.90
2018-09-15T08:15:15.683Z,99.90
2018-09-15T08:19:09.594Z,99.90
2018-09-15T08:23:03.570Z,99.90
2018-09-15T08:26:57.682Z,99.90
2018-09-15T08:30:51.600Z,99.90
2018-09-15T08:34:45.523Z,99.90
2018-09-15T08:38:39.518Z,99.90
2018-09-15T08:42:33.579Z,99.90
2018-09-15T08:46:27.523Z,99.90
2018-09-15T08:50:21.584Z,99.90
2018-09-15T08:54:15.638Z,99.90
2018-09-15T08:58:10.311Z,99.90
2018-09-15T09:02:04.442Z,99.90
2018-09-15T09:05:58.378Z,99.90
2018-09-15T09:09:52.342Z,99.90
2018-09-15T09:13:46.362Z,99.90
2018-09-15T09:17:40.341Z,99.90
2018-09-15T09:21:34.421Z,99.90
2018-09-15T09:25:28.362Z,99.90
2018-09-15T09:29:22.477Z,99.90
2018-09-15T09:33:16.854Z,99.90
2018-09-15T09:37:10.784Z,99.90
2018-09-15T09:41:04.802Z,99.90
2018-09-15T09:44:58.928Z,99.90
2018-09-15T09:48:53.086Z,99.90
2018-09-15T09:52:47.064Z,99.90
2018-09-15T09:56:41.199Z,99.90
2018-09-15T10:00:40.651Z,99.90
2018-09-15T10:04:34.570Z,99.90
2018-09-15T10:08:28.823Z,99.90
2018-09-15T10:12:23.136Z,99.90
2018-09-15T10:16:24.847Z,99.30
2018-09-15T10:20:19.122Z,98.60
2018-09-15T10:24:20.518Z,99.40
2018-09-15T10:28:14.573Z,99.90
2018-09-15T10:32:08.607Z,99.70
2018-09-15T10:36:02.580Z,99.40
2018-09-15T10:39:56.733Z,99.60
2018-09-15T10:43:50.836Z,99.30
2018-09-15T10:47:45.051Z,98.60
2018-09-15T10:51:39.399Z,97.00
2018-09-15T10:55:36.443Z,96.30
2018-09-15T10:59:31.147Z,96.50
2018-09-15T11:03:25.087Z,96.70
2018-09-15T11:07:19.402Z,96.50
2018-09-15T11:11:13.415Z,96.40
2018-09-15T11:15:08.599Z,95.20
2018-09-15T11:19:02.571Z,94.30
2018-09-15T11:22:56.495Z,92.70
2018-09-15T11:26:50.490Z,92.70
2018-09-15T11:30:44.551Z,92.80
2018-09-15T11:34:38.518Z,92.40
2018-09-15T11:38:32.542Z,91.70
2018-09-15T11:42:26.490Z,90.70
2018-09-15T11:46:20.609Z,90.50
2018-09-15T11:50:15.682Z,90.40
2018-09-15T11:54:10.363Z,90.90
2018-09-15T11:58:05.178Z,91.80
2018-09-15T12:01:59.203Z,92.20
2018-09-15T12:05:53.200Z,91.00
2018-09-15T12:09:48.198Z,90.30
2018-09-15T12:13:42.194Z,89.10
2018-09-15T12:17:36.242Z,88.60
2018-09-15T12:21:30.258Z,88.20
2018-09-15T12:25:44.982Z,87.70
2018-09-15T12:29:38.977Z,88.90
2018-09-15T12:33:33.138Z,90.00
2018-09-15T12:37:32.588Z,91.30
2018-09-15T12:41:26.539Z,92.20
2018-09-15T12:45:20.477Z,92.30
2018-09-15T12:49:14.359Z,92.00
2018-09-15T12:53:08.291Z,92.00
2018-09-15T12:57:02.277Z,92.30
2018-09-15T13:00:56.435Z,92.10
2018-09-15T13:04:50.382Z,92.00
2018-09-15T13:08:44.303Z,91.90
2018-09-15T13:12:38.279Z,92.10
2018-09-15T13:16:32.243Z,92.10
2018-09-15T13:20:26.500Z,92.10
2018-09-15T13:24:20.407Z,91.90
2018-09-15T13:28:14.499Z,91.00
2018-09-15T13:32:08.479Z,90.20
2018-09-15T13:36:02.438Z,89.60
2018-09-15T13:39:56.365Z,88.30
2018-09-15T13:43:50.382Z,88.50
2018-09-15T13:47:45.137Z,89.20
2018-09-15T13:51:39.058Z,90.10
2018-09-15T13:55:32.995Z,90.30
2018-09-15T13:59:26.923Z,91.20
2018-09-15T14:03:20.849Z,91.60
2018-09-15T14:07:14.828Z,92.10
2018-09-15T14:11:08.819Z,92.70
2018-09-15T14:15:02.847Z,93.20
2018-09-15T14:18:56.721Z,93.60
2018-09-15T14:22:50.656Z,93.70
2018-09-15T14:26:44.684Z,93.60
2018-09-15T14:30:38.747Z,93.60
2018-09-15T14:34:32.681Z,93.20
2018-09-15T14:38:26.577Z,92.50
2018-09-15T14:42:20.792Z,92.10
2018-09-15T14:46:14.823Z,91.40
2018-09-15T14:50:08.789Z,91.10
2018-09-15T14:54:02.810Z,90.60
2018-09-15T14:57:56.890Z,90.60
2018-09-15T15:01:50.949Z,90.50
2018-09-15T15:05:44.931Z,90.50
2018-09-15T15:09:38.897Z,90.60
2018-09-15T15:13:33.274Z,91.70
2018-09-15T15:17:27.202Z,91.60
2018-09-15T15:21:21.137Z,91.50
2018-09-15T15:25:15.135Z,91.40
2018-09-15T15:29:09.135Z,91.20
2018-09-15T15:33:03.666Z,90.90
2018-09-15T15:36:57.610Z,91.00
2018-09-15T15:40:51.832Z,91.00
2018-09-15T15:44:45.847Z,91.00
2018-09-15T15:48:39.821Z,91.10
2018-09-15T15:52:33.783Z,91.00
2018-09-15T15:56:27.732Z,90.90
2018-09-15T16:00:21.676Z,91.10
2018-09-15T16:04:17.513Z,91.30
2018-09-15T16:08:11.813Z,90.90
2018-09-15T16:12:05.886Z,90.80
2018-09-15T16:15:59.883Z,90.90
2018-09-15T16:19:53.903Z,91.40
2018-09-15T16:23:47.981Z,91.90
2018-09-15T16:27:41.967Z,92.60
2018-09-15T16:31:36.030Z,93.10
2018-09-15T16:35:30.023Z,92.70
2018-09-15T16:39:24.204Z,92.80
2018-09-15T16:43:18.819Z,92.60
2018-09-15T16:47:14.521Z,92.20
2018-09-15T16:51:12.083Z,92.30
2018-09-15T16:55:07.491Z,92.30
2018-09-15T16:59:01.472Z,92.20
2018-09-15T17:02:55.487Z,92.40
2018-09-15T17:06:49.913Z,92.80
2018-09-15T17:10:46.758Z,93.20
2018-09-15T17:14:41.657Z,93.70
2018-09-15T17:18:35.672Z,94.40
2018-09-15T17:22:29.839Z,94.80
2018-09-15T17:26:23.877Z,95.20
2018-09-15T17:30:18.376Z,95.70
2018-09-15T17:34:12.783Z,96.00
2018-09-15T17:38:07.109Z,96.40
2018-09-15T17:42:01.196Z,96.90
2018-09-15T17:45:55.510Z,97.40
2018-09-15T17:49:49.595Z,98.00
2018-09-15T17:53:43.624Z,98.70
2018-09-15T17:57:37.749Z,98.80
2018-09-15T18:01:31.762Z,99.20
2018-09-15T18:05:25.854Z,99.50
2018-09-15T18:09:20.251Z,99.70
2018-09-15T18:13:14.206Z,99.90
2018-09-15T18:17:08.181Z,99.90
2018-09-15T18:21:02.211Z,99.90
2018-09-15T18:24:56.149Z,99.90
2018-09-15T18:28:50.141Z,99.90
2018-09-15T18:32:44.053Z,99.90
2018-09-15T18:36:38.145Z,99.90
2018-09-15T18:40:32.123Z,99.90
2018-09-15T18:44:26.096Z,99.90
2018-09-15T18:48:20.027Z,99.90
2018-09-15T18:52:13.986Z,99.90
2018-09-15T18:56:08.103Z,99.90
2018-09-15T19:00:02.383Z,99.90
2018-09-15T19:03:56.366Z,99.90
2018-09-15T19:07:50.720Z,99.90
2018-09-15T19:11:45.140Z,99.90
2018-09-15T19:15:39.351Z,99.90
2018-09-15T19:19:34.184Z,99.90
2018-09-15T19:23:28.407Z,99.90
2018-09-15T19:27:22.528Z,99.90
2018-09-15T19:31:16.769Z,99.90
2018-09-15T19:35:11.499Z,99.90
2018-09-15T19:39:09.246Z,99.90
2018-09-15T19:43:03.495Z,99.90
2018-09-15T19:46:57.906Z,99.90
2018-09-15T19:50:51.831Z,99.90
2018-09-15T19:54:46.204Z,99.90
2018-09-15T19:58:40.129Z,99.90
2018-09-15T20:02:34.565Z,99.90
2018-09-15T20:06:28.721Z,99.90
2018-09-15T20:10:22.775Z,99.90
2018-09-15T20:14:17.585Z,99.90
2018-09-15T20:18:10.570Z,99.90
2018-09-15T20:22:05.323Z,99.90
2018-09-15T20:26:00.572Z,99.90
2018-09-15T20:29:55.287Z,99.90
2018-09-15T20:33:50.179Z,99.90
2018-09-15T20:37:44.557Z,99.90
2018-09-15T20:41:38.895Z,99.90
2018-09-15T20:45:33.135Z,99.90
2018-09-15T20:49:27.070Z,99.90
2018-09-15T20:53:21.622Z,99.90
2018-09-15T20:57:16.048Z,99.90
2018-09-15T21:01:10.409Z,99.90
2018-09-15T21:05:04.634Z,99.90
2018-09-15T21:08:58.650Z,99.90
2018-09-15T21:12:52.660Z,99.90
2018-09-15T21:16:46.634Z,99.90
2018-09-15T21:20:40.742Z,99.90
2018-09-15T21:24:34.698Z,99.90
2018-09-15T21:28:28.639Z,99.90
2018-09-15T21:32:22.578Z,99.90
2018-09-15T21:36:16.897Z,99.90
2018-09-15T21:40:12.784Z,99.90
2018-09-15T21:44:06.855Z,99.90
2018-09-15T21:48:00.970Z,99.90
2018-09-15T21:51:55.076Z,99.90
2018-09-15T21:55:49.002Z,99.90
2018-09-15T21:59:43.008Z,99.90
2018-09-15T22:03:42.353Z,99.90
2018-09-15T22:07:36.290Z,99.90
2018-09-15T22:11:30.246Z,99.90
2018-09-15T22:15:26.302Z,99.90
2018-09-15T22:19:20.222Z,99.90
2018-09-15T22:23:14.235Z,99.90
2018-09-15T22:27:08.216Z,99.90
2018-09-15T22:31:02.312Z,99.90
2018-09-15T22:34:56.720Z,99.90
2018-09-15T22:38:50.949Z,99.90
2018-09-15T22:42:44.915Z,99.90
2018-09-15T22:46:38.916Z,99.90
2018-09-15T22:50:33.028Z,99.90
2018-09-15T22:54:27.012Z,99.90
2018-09-15T22:58:20.958Z,99.90
2018-09-15T23:02:15.016Z,99.90
2018-09-15T23:06:09.004Z,99.90
2018-09-15T23:10:03.038Z,99.90
2018-09-15T23:13:57.017Z,99.90
2018-09-15T23:17:50.947Z,99.90
2018-09-15T23:21:44.901Z,99.90
2018-09-15T23:25:39.200Z,99.90
2018-09-15T23:29:33.120Z,99.90
2018-09-15T23:33:27.064Z,99.90
2018-09-15T23:37:20.990Z,99.90
2018-09-15T23:41:14.923Z,99.90
2018-09-15T23:45:09.006Z,99.90
2018-09-15T23:49:02.980Z,99.90
2018-09-15T23:52:56.934Z,99.90
2018-09-15T23:56:51.046Z,99.90
